Time;durP1;ratioP1;P1;durP2;ratioP2;P2;SDS_P1;SDS_P2;PMS_P1;PMS_P2;Temp;Humidity;BMP_temperature;BMP_pressure;BME280_temperature;BME280_humidity;BME280_pressure;Samples;Min_cycle;Max_cycle;Signal;HPM_P1;HPM_P2
2023/05/24 00:02:16;;;;;;;8.73;3.33;;;18.90;99.90;;;;;;5132038;27;20188;-68
2023/05/24 00:04:44;;;;;;;4.43;2.70;;;19.40;99.90;;;;;;5132265;27;20228;-67
2023/05/24 00:07:12;;;;;;;7.10;2.60;;;19.20;99.90;;;;;;5131777;27;20657;-68
2023/05/24 00:09:39;;;;;;;8.63;3.00;;;19.40;99.90;;;;;;5132313;27;20178;-67
2023/05/24 00:12:07;;;;;;;10.13;3.10;;;19.40;99.90;;;;;;5132685;27;20184;-68
2023/05/24 00:14:34;;;;;;;6.67;2.80;;;20.00;99.90;;;;;;5132029;27;20325;-68
2023/05/24 00:17:02;;;;;;;9.97;3.10;;;19.90;99.90;;;;;;5132681;27;20237;-68
2023/05/24 00:19:29;;;;;;;6.13;3.10;;;20.20;99.90;;;;;;5132598;27;20210;-69
2023/05/24 00:21:57;;;;;;;8.97;2.57;;;20.30;99.90;;;;;;5131528;27;20614;-69
2023/05/24 00:24:24;;;;;;;6.47;2.63;;;20.20;99.90;;;;;;5132233;27;20318;-68
2023/05/24 00:26:52;;;;;;;5.93;2.43;;;20.80;99.90;;;;;;5132453;27;20173;-69
2023/05/24 00:29:20;;;;;;;5.03;1.90;;;20.60;99.90;;;;;;5131759;28;20178;-68
2023/05/24 00:31:47;;;;;;;3.97;1.70;;;20.70;97.30;;;;;;5137030;28;20174;-69
2023/05/24 00:34:14;;;;;;;7.20;2.30;;;20.70;96.60;;;;;;5132499;28;20623;-68
2023/05/24 00:36:42;;;;;;;1.80;1.10;;;21.30;94.80;;;;;;5131904;28;20202;-67
2023/05/24 00:39:09;;;;;;;5.20;2.53;;;21.40;88.70;;;;;;5132484;28;20177;-68
2023/05/24 00:41:36;;;;;;;2.90;1.77;;;22.00;86.30;;;;;;5133522;28;20174;-68
2023/05/24 00:44:04;;;;;;;6.90;2.27;;;21.70;87.10;;;;;;5114907;28;20266;-68
2023/05/24 00:46:33;;;;;;;5.97;3.13;;;21.40;84.10;;;;;;5133502;28;20294;-68
2023/05/24 00:49:01;;;;;;;7.00;2.63;;;20.50;86.60;;;;;;5133159;28;20289;-68
2023/05/24 00:51:31;;;;;;;5.73;2.73;;;20.90;91.50;;;;;;5133477;28;20260;-68
2023/05/24 00:53:59;;;;;;;5.77;2.53;;;21.10;86.40;;;;;;5134143;28;20654;-67
2023/05/24 00:56:26;;;;;;;6.50;2.93;;;21.20;80.40;;;;;;5133456;28;20264;-68
2023/05/24 00:58:55;;;;;;;7.13;2.60;;;21.70;75.20;;;;;;5133511;28;20207;-68
2023/05/24 01:01:25;;;;;;;4.73;2.50;;;21.40;76.40;;;;;;5133530;28;20562;-68
2023/05/24 01:03:53;;;;;;;4.17;2.70;;;21.20;74.40;;;;;;5133435;28;20213;-68
2023/05/24 01:06:22;;;;;;;6.40;2.67;;;21.20;75.90;;;;;;5133353;28;20182;-68
2023/05/24 01:08:55;;;;;;;6.90;2.50;;;21.90;74.10;;;;;;5133046;28;20174;-68
2023/05/24 01:11:26;;;;;;;8.73;2.77;;;22.70;69.50;;;;;;5133892;28;20198;-68
2023/05/24 01:14:07;;;;;;;10.00;3.13;;;22.40;65.90;;;;;;5133026;28;20654;-68
2023/05/24 01:16:45;;;;;;;7.63;2.93;;;23.00;64.40;;;;;;5133347;28;20265;-68
2023/05/24 01:19:52;;;;;;;9.97;3.53;;;23.20;59.50;;;;;;5133443;28;20186;-68
2023/05/24 01:22:43;;;;;;;7.13;2.90;;;22.70;62.50;;;;;;5110593;28;20184;-68
2023/05/24 01:25:27;;;;;;;8.40;4.00;;;22.80;59.50;;;;;;5133146;28;20217;-68
2023/05/24 01:27:55;;;;;;;8.63;2.40;;;23.00;58.40;;;;;;5133182;28;20567;-68
2023/05/24 01:30:24;;;;;;;9.20;3.90;;;23.50;57.80;;;;;;5132860;28;20541;-68
2023/05/24 01:36:14;;;;;;;7.10;3.60;;;22.70;54.10;;;;;;5135798;27;20181;-68
2023/05/24 01:42:13;;;;;;;9.13;4.57;;;23.30;51.50;;;;;;5135725;27;20185;-68
2023/05/24 01:45:11;;;;;;;14.93;5.27;;;23.50;51.60;;;;;;5134596;27;20214;-68
2023/05/24 01:48:05;;;;;;;13.20;5.37;;;23.20;56.90;;;;;;5097927;28;20194;-68
2023/05/24 01:50:37;;;;;;;19.53;6.33;;;23.60;54.40;;;;;;5114587;28;20183;-68
2023/05/24 01:53:08;;;;;;;17.77;6.37;;;24.00;56.40;;;;;;5114178;28;20181;-68
2023/05/24 01:55:37;;;;;;;17.03;5.50;;;23.60;56.00;;;;;;5114405;28;20171;-68
2023/05/24 01:58:06;;;;;;;16.83;5.70;;;22.90;61.30;;;;;;5114530;28;20192;-68
2023/05/24 02:00:35;;;;;;;13.47;5.83;;;23.40;58.40;;;;;;5113918;28;20166;-68
2023/05/24 02:03:03;;;;;;;15.23;6.23;;;23.80;55.90;;;;;;5114322;28;20189;-68
2023/05/24 02:05:32;;;;;;;18.57;5.60;;;23.80;57.10;;;;;;5114142;28;20225;-68
2023/05/24 02:08:00;;;;;;;22.13;5.67;;;23.90;57.10;;;;;;5113781;27;20187;-67
2023/05/24 02:10:27;;;;;;;17.13;5.70;;;24.20;54.00;;;;;;5122290;27;20189;-68
2023/05/24 02:12:54;;;;;;;14.20;4.90;;;24.40;55.10;;;;;;5114435;28;20752;-68
2023/05/24 02:15:22;;;;;;;13.30;5.13;;;23.70;54.70;;;;;;5113737;28;20647;-68
2023/05/24 02:17:49;;;;;;;12.10;5.23;;;23.80;52.60;;;;;;5122904;27;20193;-68
2023/05/24 02:20:17;;;;;;;12.97;3.80;;;23.80;54.10;;;;;;5135597;27;20227;-68
2023/05/24 02:22:44;;;;;;;12.27;4.70;;;24.40;51.30;;;;;;5133750;27;20662;-69
2023/05/24 02:25:11;;;;;;;10.17;4.23;;;24.40;49.10;;;;;;5134401;27;20206;-68
2023/05/24 02:27:39;;;;;;;19.43;4.57;;;24.60;50.60;;;;;;5134410;27;20253;-68
2023/05/24 02:30:07;;;;;;;13.00;4.70;;;24.70;48.00;;;;;;5133984;27;20178;-68
2023/05/24 02:32:35;;;;;;;13.70;4.60;;;24.70;45.80;;;;;;5134248;27;20261;-69
2023/05/24 02:35:02;;;;;;;11.27;4.57;;;24.30;44.10;;;;;;5134232;27;20208;-68
2023/05/24 02:37:29;;;;;;;12.40;4.37;;;24.40;42.60;;;;;;5133810;27;20209;-69
2023/05/24 02:39:57;;;;;;;12.63;4.23;;;24.60;45.10;;;;;;5134279;27;20261;-69
2023/05/24 02:42:24;;;;;;;16.93;4.67;;;24.80;41.90;;;;;;5134011;27;20202;-68
2023/05/24 02:44:52;;;;;;;23.73;4.77;;;25.00;41.40;;;;;;5133269;27;20659;-69
2023/05/24 02:47:19;;;;;;;20.93;3.80;;;24.80;39.90;;;;;;5134068;27;20193;-68
2023/05/24 02:49:47;;;;;;;13.43;3.83;;;24.60;37.70;;;;;;5133886;27;20170;-69
2023/05/24 02:55:36;;;;;;;13.97;4.30;;;25.50;36.90;;;;;;5133261;27;20226;-69
2023/05/24 02:58:03;;;;;;;15.00;3.87;;;25.90;35.50;;;;;;5129898;27;20191;-68
2023/05/24 03:00:30;;;;;;;17.33;4.67;;;25.60;33.60;;;;;;5122185;27;20179;-67
2023/05/24 03:03:01;;;;;;;16.30;4.10;;;25.20;32.50;;;;;;5123013;27;20213;-68
2023/05/24 03:05:28;;;;;;;14.37;3.47;;;25.60;33.00;;;;;;5123248;27;20297;-68
2023/05/24 03:07:57;;;;;;;9.97;3.80;;;25.80;32.70;;;;;;5123824;27;20270;-67
2023/05/24 03:10:24;;;;;;;11.23;3.57;;;25.90;30.50;;;;;;5123043;27;20187;-68
2023/05/24 03:12:51;;;;;;;10.90;4.00;;;25.80;27.20;;;;;;5122983;27;20202;-68
2023/05/24 03:15:19;;;;;;;12.97;3.30;;;25.60;26.60;;;;;;5120908;27;20171;-68
2023/05/24 03:17:46;;;;;;;10.90;3.00;;;25.70;25.40;;;;;;5112865;28;20624;-68
2023/05/24 03:20:14;;;;;;;11.30;3.13;;;26.00;21.30;;;;;;5112588;28;20194;-68
2023/05/24 03:22:42;;;;;;;7.97;2.70;;;25.80;21.50;;;;;;5112659;28;20170;-69
2023/05/24 03:25:09;;;;;;;11.50;2.83;;;25.30;20.50;;;;;;5112627;28;20214;-69
2023/05/24 03:27:37;;;;;;;11.43;3.23;;;25.30;19.80;;;;;;5112286;28;20541;-68
2023/05/24 03:30:05;;;;;;;7.30;2.63;;;25.20;19.80;;;;;;5112973;27;20636;-67
2023/05/24 03:32:33;;;;;;;11.40;2.70;;;25.30;19.10;;;;;;5123521;27;20186;-68
2023/05/24 03:35:01;;;;;;;9.27;2.43;;;25.30;18.40;;;;;;5116124;27;20610;-68
2023/05/24 03:37:28;;;;;;;6.67;2.33;;;24.70;18.00;;;;;;5112339;28;20182;-67
2023/05/24 03:39:56;;;;;;;8.17;2.20;;;24.50;16.40;;;;;;5112252;28;20175;-68
2023/05/24 03:42:23;;;;;;;5.80;1.63;;;24.10;15.30;;;;;;5112277;28;20607;-69
2023/05/24 03:44:50;;;;;;;5.80;1.60;;;24.40;13.20;;;;;;5112259;28;20217;-67
2023/05/24 03:47:18;;;;;;;3.03;1.87;;;24.70;11.50;;;;;;5112557;28;20171;-67
2023/05/24 03:49:45;;;;;;;5.20;2.03;;;24.60;13.00;;;;;;5112481;28;20253;-68
2023/05/24 03:52:12;;;;;;;5.23;2.03;;;24.70;13.00;;;;;;5112322;28;20170;-69
2023/05/24 03:54:40;;;;;;;8.73;2.30;;;24.20;12.30;;;;;;5112112;28;20632;-68
2023/05/24 03:57:11;;;;;;;3.70;1.70;;;24.50;15.40;;;;;;5111510;28;20270;-68
2023/05/24 03:59:39;;;;;;;7.30;2.37;;;24.70;10.50;;;;;;5112234;28;20173;-70
2023/05/24 04:02:07;;;;;;;3.20;1.67;;;24.40;13.30;;;;;;5112115;28;20192;-68
2023/05/24 04:04:36;;;;;;;7.20;2.73;;;24.60;9.80;;;;;;5111773;28;20240;-70
2023/05/24 04:07:03;;;;;;;9.73;2.23;;;24.20;11.80;;;;;;5111817;28;20272;-69
2023/05/24 04:09:31;;;;;;;6.23;1.97;;;24.10;14.70;;;;;;5093589;28;20221;-69
2023/05/24 04:11:58;;;;;;;5.50;2.10;;;24.40;14.20;;;;;;5111840;28;20178;-69
2023/05/24 04:14:27;;;;;;;6.30;1.83;;;24.50;11.40;;;;;;5111285;28;20266;-68
2023/05/24 04:17:04;;;;;;;7.73;1.57;;;24.60;10.20;;;;;;5111639;28;20201;-67
2023/05/24 04:19:31;;;;;;;8.93;2.00;;;24.50;11.30;;;;;;5111295;28;20951;-68
2023/05/24 04:21:59;;;;;;;8.57;2.20;;;24.60;11.90;;;;;;5111724;28;20221;-69
2023/05/24 04:24:26;;;;;;;8.77;2.50;;;24.50;13.10;;;;;;5111601;28;20257;-67
2023/05/24 04:26:54;;;;;;;9.17;2.23;;;24.10;13.70;;;;;;5111202;28;20201;-68
2023/05/24 04:29:25;;;;;;;3.63;1.97;;;24.20;14.50;;;;;;5111725;28;20189;-68
2023/05/24 04:31:52;;;;;;;3.83;1.70;;;24.10;13.40;;;;;;5111404;28;20647;-70
2023/05/24 04:37:41;;;;;;;5.07;1.90;;;23.80;11.60;;;;;;5131541;28;20230;-69
2023/05/24 04:40:46;;;;;;;7.03;2.20;;;23.70;12.90;;;;;;5132051;28;20185;-69
2023/05/24 04:43:32;;;;;;;8.77;2.10;;;23.90;14.70;;;;;;5132624;28;20165;-68
2023/05/24 23:41:52;;;;;;;4.60;2.53;;;18.20;98.90;;;;;;5026150;28;20306;-70
2023/05/24 23:44:24;;;;;;;10.43;2.63;;;17.70;96.10;;;;;;5059562;28;20714;-71
2023/05/24 23:46:52;;;;;;;7.50;2.97;;;17.30;99.30;;;;;;5066572;28;20187;-73
2023/05/24 23:49:20;;;;;;;7.87;3.20;;;17.20;99.90;;;;;;5050180;28;20192;-71
2023/05/24 23:51:48;;;;;;;10.17;3.43;;;17.40;99.90;;;;;;5051347;28;20184;-71
2023/05/24 23:54:15;;;;;;;7.20;3.23;;;17.80;99.90;;;;;;5050592;28;20544;-73
2023/05/24 23:56:42;;;;;;;9.77;3.63;;;18.20;99.90;;;;;;5050161;28;20711;-73
2023/05/24 23:59:10;;;;;;;13.30;4.30;;;18.60;99.90;;;;;;5051212;28;20230;-72
